Time;durP1;ratioP1;P1;durP2;ratioP2;P2;SDS_P1;SDS_P2;PMS_P1;PMS_P2;Temp;Humidity;BMP_temperature;BMP_pressure;BME280_temperature;BME280_humidity;BME280_pressure;Samples;Min_cycle;Max_cycle;Signal;HPM_P1;HPM_P2
2021/04/30 00:00:50;;;;;;;21.85;17.23;;;8.80;87.60;;;;;;6156401;23;20022;-88
2021/04/30 00:03:17;;;;;;;20.70;15.48;;;8.80;87.60;;;;;;6155440;23;20018;-85
2021/04/30 00:05:42;;;;;;;22.95;17.65;;;8.80;87.40;;;;;;6156631;23;20053;-86
2021/04/30 00:08:08;;;;;;;24.27;17.27;;;8.80;87.30;;;;;;6156929;23;20033;-86
2021/04/30 00:10:34;;;;;;;20.83;15.82;;;8.80;87.60;;;;;;6155660;23;20018;-86
2021/04/30 00:12:59;;;;;;;19.10;15.23;;;8.80;87.40;;;;;;6156474;23;20056;-86
2021/04/30 00:15:25;;;;;;;21.75;16.75;;;8.80;86.70;;;;;;6155983;23;20026;-86
2021/04/30 00:17:51;;;;;;;19.65;15.90;;;8.80;87.10;;;;;;6155078;23;20056;-86
2021/04/30 00:20:17;;;;;;;17.80;14.25;;;8.80;87.00;;;;;;6156700;23;20022;-85
2021/04/30 00:22:43;;;;;;;19.70;16.00;;;8.70;86.50;;;;;;6156157;23;20025;-86
2021/04/30 00:25:10;;;;;;;18.95;15.40;;;8.70;86.60;;;;;;6155899;23;20014;-86
2021/04/30 00:27:36;;;;;;;19.35;15.10;;;8.70;86.40;;;;;;6156846;23;20017;-86
2021/04/30 00:30:02;;;;;;;19.42;14.27;;;8.70;87.00;;;;;;6157510;23;20210;-85
2021/04/30 00:32:28;;;;;;;18.13;15.07;;;8.70;86.20;;;;;;6155722;23;20028;-86
2021/04/30 00:34:54;;;;;;;20.30;15.27;;;8.70;86.30;;;;;;6156457;23;20029;-85
2021/04/30 00:37:19;;;;;;;19.15;15.40;;;8.70;86.40;;;;;;6155367;23;20096;-85
2021/04/30 00:39:45;;;;;;;18.75;14.90;;;8.70;86.60;;;;;;6155125;23;20025;-86
2021/04/30 00:42:14;;;;;;;17.05;14.25;;;8.60;86.30;;;;;;6156344;23;20021;-86
2021/04/30 00:44:43;;;;;;;21.48;14.77;;;8.60;86.10;;;;;;6156217;23;20014;-85
2021/04/30 00:47:25;;;;;;;19.15;16.13;;;8.60;86.10;;;;;;6155775;23;20018;-86
2021/04/30 00:49:50;;;;;;;17.55;14.35;;;8.60;86.60;;;;;;6155701;23;20792;-86
2021/04/30 00:52:16;;;;;;;19.23;17.05;;;8.60;86.60;;;;;;6156054;23;20017;-86
2021/04/30 00:54:41;;;;;;;20.15;16.42;;;8.60;87.10;;;;;;6155461;23;20021;-86
2021/04/30 00:57:08;;;;;;;22.00;16.27;;;8.60;87.40;;;;;;6156231;23;20028;-86
2021/04/30 00:59:34;;;;;;;20.05;15.80;;;8.50;87.60;;;;;;6155338;23;20045;-86
2021/04/30 01:01:59;;;;;;;21.13;16.52;;;8.60;87.80;;;;;;6155928;23;20018;-86
2021/04/30 01:04:25;;;;;;;16.33;13.60;;;8.50;87.80;;;;;;6155436;23;20114;-86
2021/04/30 01:06:51;;;;;;;18.35;15.40;;;8.60;87.50;;;;;;6154366;23;20186;-86
2021/04/30 01:09:16;;;;;;;16.95;14.20;;;8.50;87.20;;;;;;6156202;23;20088;-86
2021/04/30 01:11:42;;;;;;;19.38;13.95;;;8.50;86.90;;;;;;6155560;23;20076;-86
2021/04/30 01:14:08;;;;;;;15.98;13.07;;;8.50;86.60;;;;;;6155272;23;20445;-86
2021/04/30 01:16:34;;;;;;;17.75;13.82;;;8.50;86.50;;;;;;6155002;23;20057;-86
2021/04/30 01:19:00;;;;;;;19.80;14.98;;;8.50;86.20;;;;;;6155863;23;20018;-86
2021/04/30 01:21:27;;;;;;;16.20;13.38;;;8.40;86.40;;;;;;6155134;23;20100;-86
2021/04/30 01:23:54;;;;;;;18.58;14.27;;;8.50;86.70;;;;;;6155426;23;20064;-86
2021/04/30 01:26:20;;;;;;;18.92;15.05;;;8.40;86.40;;;;;;6156507;23;20017;-86
2021/04/30 01:28:47;;;;;;;17.10;13.60;;;8.40;86.60;;;;;;6154909;23;20067;-86
2021/04/30 01:31:17;;;;;;;18.13;15.63;;;8.40;86.60;;;;;;6155280;23;20084;-85
2021/04/30 01:33:43;;;;;;;19.60;13.98;;;8.40;87.10;;;;;;6155092;23;20425;-86
2021/04/30 01:36:09;;;;;;;16.17;13.38;;;8.40;87.10;;;;;;6155153;23;20092;-86
2021/04/30 01:38:34;;;;;;;19.85;14.07;;;8.40;86.90;;;;;;6129368;23;20025;-85
2021/04/30 01:41:00;;;;;;;18.42;14.93;;;8.40;86.90;;;;;;6155520;23;20043;-85
2021/04/30 01:43:26;;;;;;;16.52;13.30;;;8.40;87.00;;;;;;6154744;23;20020;-85
2021/04/30 01:45:59;;;;;;;16.33;13.82;;;8.40;87.40;;;;;;6155347;23;20017;-85
2021/04/30 01:48:30;;;;;;;16.52;14.10;;;8.40;86.70;;;;;;6155073;23;20454;-85
2021/04/30 01:50:57;;;;;;;18.15;13.88;;;8.40;87.00;;;;;;6154558;23;20189;-86
2021/04/30 01:53:28;;;;;;;17.25;13.82;;;8.40;87.00;;;;;;6155439;23;20473;-85
2021/04/30 01:55:57;;;;;;;18.23;13.65;;;8.40;87.10;;;;;;6154647;23;20017;-86
2021/04/30 01:58:24;;;;;;;15.10;12.68;;;8.40;87.30;;;;;;6155566;23;20521;-86
2021/04/30 02:00:53;;;;;;;16.80;13.25;;;8.40;86.90;;;;;;6155198;23;20371;-86
2021/04/30 02:03:20;;;;;;;15.50;12.80;;;8.40;87.00;;;;;;6154091;23;20479;-85
2021/04/30 02:05:46;;;;;;;14.95;12.88;;;8.40;87.50;;;;;;6155103;23;20017;-85
2021/04/30 02:08:14;;;;;;;16.85;13.02;;;8.40;86.70;;;;;;6155040;23;20017;-86
2021/04/30 02:10:41;;;;;;;16.35;12.20;;;8.40;87.00;;;;;;6154291;23;20017;-85
2021/04/30 02:13:07;;;;;;;15.27;12.55;;;8.30;86.70;;;;;;6155292;23;20010;-85
2021/04/30 02:15:35;;;;;;;14.98;11.80;;;8.40;86.80;;;;;;6154228;23;20470;-85
2021/04/30 02:18:01;;;;;;;15.02;12.63;;;8.40;86.50;;;;;;6154567;23;20019;-85
2021/04/30 02:20:27;;;;;;;17.58;13.15;;;8.40;86.40;;;;;;6154705;23;20386;-85
2021/04/30 02:22:53;;;;;;;14.18;11.68;;;8.40;87.30;;;;;;6154743;23;20022;-85
2021/04/30 02:25:21;;;;;;;17.52;12.32;;;8.30;86.10;;;;;;6154563;23;20017;-85
2021/04/30 02:27:50;;;;;;;17.27;12.95;;;8.40;86.40;;;;;;6154445;23;20017;-85
2021/04/30 02:30:17;;;;;;;15.90;12.77;;;8.30;86.60;;;;;;6155583;23;20025;-85
2021/04/30 02:32:43;;;;;;;16.77;13.05;;;8.30;86.30;;;;;;6154440;23;20071;-86
2021/04/30 02:35:12;;;;;;;21.35;13.80;;;8.40;86.40;;;;;;6155287;23;20173;-84
2021/04/30 02:37:39;;;;;;;14.85;11.50;;;8.40;86.80;;;;;;6154833;23;20018;-85
2021/04/30 02:40:06;;;;;;;16.27;12.57;;;8.30;86.30;;;;;;6154363;23;20017;-85
2021/04/30 02:42:32;;;;;;;14.18;11.90;;;8.40;86.40;;;;;;6154915;23;20021;-86
2021/04/30 02:45:01;;;;;;;15.43;13.20;;;8.30;86.40;;;;;;6153912;23;20025;-86
2021/04/30 02:47:30;;;;;;;13.98;11.27;;;8.30;86.80;;;;;;6155559;23;20018;-86
2021/04/30 02:49:58;;;;;;;15.48;12.85;;;8.30;86.40;;;;;;6155360;23;20041;-87
2021/04/30 02:52:23;;;;;;;15.40;12.25;;;8.30;86.70;;;;;;6154215;23;20488;-87
2021/04/30 02:54:50;;;;;;;15.95;12.80;;;8.30;86.80;;;;;;6154970;23;20025;-86
2021/04/30 02:57:15;;;;;;;19.27;12.10;;;8.30;86.90;;;;;;6155375;23;20021;-87
2021/04/30 02:59:41;;;;;;;22.05;12.90;;;8.30;86.60;;;;;;6154064;23;20013;-86
2021/04/30 03:02:07;;;;;;;16.33;12.05;;;8.30;86.80;;;;;;6154273;23;20082;-86
2021/04/30 03:04:33;;;;;;;16.02;11.98;;;8.30;86.60;;;;;;6154969;23;20013;-87
2021/04/30 03:06:59;;;;;;;16.30;12.27;;;8.30;86.50;;;;;;6154084;23;20476;-88
2021/04/30 03:09:24;;;;;;;15.60;11.52;;;8.30;86.70;;;;;;6154633;23;20009;-86
2021/04/30 03:11:50;;;;;;;16.38;12.57;;;8.30;86.60;;;;;;6154917;23;20547;-87
2021/04/30 03:14:16;;;;;;;17.33;13.27;;;8.30;86.70;;;;;;6151797;23;20028;-86
2021/04/30 03:16:42;;;;;;;18.40;13.00;;;8.30;87.10;;;;;;6153287;23;20561;-86
2021/04/30 03:19:09;;;;;;;16.05;11.95;;;8.30;87.50;;;;;;6154218;23;20045;-86
2021/04/30 03:21:35;;;;;;;15.70;11.48;;;8.30;87.50;;;;;;6152892;23;20017;-86
2021/04/30 03:24:01;;;;;;;13.48;11.82;;;8.30;87.10;;;;;;6154669;23;20013;-86
2021/04/30 03:26:27;;;;;;;12.77;10.98;;;8.30;87.00;;;;;;6155150;23;20025;-86
2021/04/30 03:28:53;;;;;;;15.23;11.05;;;8.20;86.80;;;;;;6155067;23;20013;-86
2021/04/30 03:31:18;;;;;;;15.88;11.20;;;8.30;86.90;;;;;;6157148;23;20024;-86
2021/04/30 03:33:44;;;;;;;16.20;12.35;;;8.20;86.50;;;;;;6156669;23;20088;-86
2021/04/30 03:36:09;;;;;;;15.75;10.98;;;8.20;86.70;;;;;;6156345;23;20021;-86
2021/04/30 03:38:35;;;;;;;12.00;10.45;;;8.20;86.60;;;;;;6156465;23;20014;-85
2021/04/30 03:41:01;;;;;;;14.85;11.48;;;8.20;86.20;;;;;;6156957;23;20064;-86
2021/04/30 03:43:27;;;;;;;16.88;11.75;;;8.20;86.00;;;;;;6155705;23;20080;-84
2021/04/30 03:45:53;;;;;;;14.57;11.35;;;8.20;86.30;;;;;;6156723;23;20101;-86
2021/04/30 03:48:22;;;;;;;16.02;11.43;;;8.20;86.20;;;;;;6156145;23;20014;-86
2021/04/30 03:50:48;;;;;;;14.85;11.65;;;8.20;86.10;;;;;;6156096;23;20450;-85
2021/04/30 03:53:14;;;;;;;13.18;10.32;;;8.20;86.30;;;;;;6156605;23;20064;-86
2021/04/30 03:55:40;;;;;;;14.98;11.43;;;8.20;86.10;;;;;;6155333;23;20013;-86
2021/04/30 03:58:06;;;;;;;15.65;11.98;;;8.20;85.90;;;;;;6156640;23;20089;-87
2021/04/30 04:00:32;;;;;;;15.23;11.57;;;8.20;86.30;;;;;;6156525;23;20367;-86
2021/04/30 04:02:57;;;;;;;14.73;11.38;;;8.20;86.40;;;;;;6155753;23;20018;-86
2021/04/30 04:05:23;;;;;;;15.63;11.90;;;8.20;86.60;;;;;;6156585;23;20013;-86
2021/04/30 04:07:49;;;;;;;14.60;11.77;;;8.20;87.00;;;;;;6155899;23;20096;-86
2021/04/30 04:10:14;;;;;;;14.40;11.23;;;8.20;87.00;;;;;;6155888;23;20445;-86
2021/04/30 04:12:41;;;;;;;12.85;10.85;;;8.20;87.10;;;;;;6156142;23;20333;-86
2021/04/30 04:15:07;;;;;;;14.40;10.88;;;8.20;86.60;;;;;;6157048;23;20036;-86
2021/04/30 04:17:34;;;;;;;14.55;11.45;;;8.20;86.60;;;;;;6154782;23;20025;-86
2021/04/30 04:20:01;;;;;;;15.50;11.48;;;8.20;86.90;;;;;;6156692;23;20024;-86
2021/04/30 04:22:26;;;;;;;14.45;10.65;;;8.20;87.00;;;;;;6156546;23;20021;-86
2021/04/30 04:24:52;;;;;;;12.80;10.40;;;8.20;86.60;;;;;;6155294;23;20449;-85
2021/04/30 04:27:19;;;;;;;15.20;12.10;;;8.20;86.30;;;;;;6156485;23;20069;-86
2021/04/30 04:29:44;;;;;;;15.13;11.35;;;8.20;86.60;;;;;;6156189;23;20017;-86
2021/04/30 04:32:10;;;;;;;14.77;10.30;;;8.20;86.80;;;;;;6155556;23;20096;-85
2021/04/30 04:34:36;;;;;;;14.50;11.48;;;8.20;86.40;;;;;;6155975;23;20096;-85
2021/04/30 04:37:01;;;;;;;12.10;9.98;;;8.20;86.50;;;;;;6156249;23;20058;-85
2021/04/30 04:39:29;;;;;;;14.45;10.60;;;8.20;86.30;;;;;;6155419;23;20450;-86
2021/04/30 04:41:55;;;;;;;14.68;10.60;;;8.20;86.30;;;;;;6155668;23;20489;-86
2021/04/30 04:44:21;;;;;;;12.95;10.15;;;8.20;86.10;;;;;;6156278;23;20020;-86
2021/04/30 04:46:47;;;;;;;13.70;11.25;;;8.20;86.00;;;;;;6154965;23;20021;-86
2021/04/30 04:49:12;;;;;;;14.10;10.93;;;8.20;86.30;;;;;;6156448;23;20072;-86
2021/04/30 04:51:38;;;;;;;14.48;10.80;;;8.20;86.60;;;;;;6154793;23;20021;-86
2021/04/30 04:54:06;;;;;;;12.93;10.30;;;8.20;86.30;;;;;;6156514;23;20049;-86
2021/04/30 04:56:32;;;;;;;13.82;10.70;;;8.20;86.30;;;;;;6156003;23;20018;-86
2021/04/30 04:58:59;;;;;;;13.65;9.95;;;8.20;86.00;;;;;;6155285;23;20450;-85
2021/04/30 05:01:24;;;;;;;15.60;11.27;;;8.20;85.90;;;;;;6156020;23;20018;-86
2021/04/30 05:03:51;;;;;;;13.38;10.32;;;8.20;86.20;;;;;;6156020;23;20226;-86
2021/04/30 05:06:16;;;;;;;16.67;10.50;;;8.10;86.20;;;;;;6155458;23;20021;-87
2021/04/30 05:08:42;;;;;;;13.77;10.57;;;8.20;85.80;;;;;;6156069;23;20021;-86
2021/04/30 05:11:08;;;;;;;12.82;10.85;;;8.20;85.80;;;;;;6129882;23;20022;-86
2021/04/30 05:13:35;;;;;;;13.15;10.27;;;8.20;85.60;;;;;;6153196;23;20028;-87
2021/04/30 05:16:02;;;;;;;16.48;12.57;;;8.20;85.40;;;;;;6155044;23;20030;-87
2021/04/30 05:18:29;;;;;;;12.38;9.43;;;8.20;85.90;;;;;;6156278;23;20028;-87
2021/04/30 05:20:55;;;;;;;13.30;10.02;;;8.20;85.50;;;;;;6155044;23;20038;-87
2021/04/30 05:23:22;;;;;;;14.77;10.23;;;8.20;85.40;;;;;;6156389;23;20045;-87
2021/04/30 05:25:48;;;;;;;13.48;10.23;;;8.20;85.40;;;;;;6156112;23;20076;-88
2021/04/30 05:28:15;;;;;;;18.08;11.93;;;8.20;85.60;;;;;;6155720;23;20025;-87
2021/04/30 05:30:44;;;;;;;12.43;9.57;;;8.20;86.00;;;;;;6155531;23;20013;-86
2021/04/30 05:33:10;;;;;;;11.32;9.80;;;8.20;85.80;;;;;;6154585;23;20493;-87
2021/04/30 05:35:35;;;;;;;14.25;10.52;;;8.20;85.60;;;;;;6154600;23;20017;-88
2021/04/30 05:38:01;;;;;;;13.43;9.95;;;8.20;85.40;;;;;;6156048;23;20022;-88
2021/04/30 05:40:27;;;;;;;12.30;9.82;;;8.20;85.40;;;;;;6155681;23;20077;-88
2021/04/30 05:42:53;;;;;;;14.80;9.85;;;8.20;85.20;;;;;;6154573;23;20017;-88
2021/04/30 05:45:19;;;;;;;13.50;10.85;;;8.30;85.30;;;;;;6155604;23;20092;-89
2021/04/30 05:47:45;;;;;;;15.27;10.60;;;8.30;86.00;;;;;;6155876;23;20028;-91
2021/04/30 05:50:12;;;;;;;13.32;10.70;;;8.30;86.60;;;;;;6156129;23;20323;-91
2021/04/30 05:52:38;;;;;;;15.80;11.50;;;8.30;86.20;;;;;;6156021;23;20072;-91
2021/04/30 05:55:05;;;;;;;14.55;11.25;;;8.30;86.70;;;;;;6155803;23;20017;-91
2021/04/30 05:57:30;;;;;;;15.70;10.88;;;8.30;86.80;;;;;;6156614;23;20433;-91
2021/04/30 05:59:56;;;;;;;12.48;9.90;;;8.30;87.70;;;;;;6156588;23;20071;-93
2021/04/30 06:02:22;;;;;;;11.80;8.98;;;8.30;86.80;;;;;;6155619;23;20768;-88
2021/04/30 06:04:47;;;;;;;13.43;10.45;;;8.30;86.30;;;;;;6149645;23;20052;-86
2021/04/30 06:07:13;;;;;;;19.92;11.80;;;8.30;86.20;;;;;;6154429;23;20028;-88
2021/04/30 06:09:39;;;;;;;13.55;10.82;;;8.40;86.40;;;;;;6154401;23;20020;-88
2021/04/30 06:12:05;;;;;;;12.18;9.85;;;8.40;86.40;;;;;;6155811;23;20024;-87
2021/04/30 06:14:32;;;;;;;16.42;11.65;;;8.40;86.30;;;;;;6155400;23;20345;-87
2021/04/30 06:16:58;;;;;;;15.82;10.45;;;8.40;86.40;;;;;;6153005;23;20065;-86
2021/04/30 06:19:38;;;;;;;23.27;14.07;;;8.40;86.40;;;;;;6155184;23;20018;-85
2021/04/30 06:22:04;;;;;;;19.95;11.85;;;8.40;87.20;;;;;;6154114;23;20021;-86
2021/04/30 06:24:37;;;;;;;15.88;10.63;;;8.40;87.30;;;;;;6153633;23;20141;-87
2021/04/30 06:27:09;;;;;;;13.55;10.48;;;8.40;86.90;;;;;;6155202;23;20021;-87
2021/04/30 06:29:42;;;;;;;19.23;12.48;;;8.50;86.50;;;;;;6148177;23;20454;-86
2021/04/30 06:32:22;;;;;;;25.20;13.75;;;8.50;86.80;;;;;;6152571;23;20036;-86
2021/04/30 06:34:53;;;;;;;16.17;11.00;;;8.50;87.30;;;;;;6152454;23;20509;-85
2021/04/30 06:37:19;;;;;;;19.35;11.27;;;8.50;87.70;;;;;;6153744;23;20484;-86
2021/04/30 06:40:00;;;;;;;17.17;10.57;;;8.50;87.40;;;;;;6155024;23;20022;-86
2021/04/30 06:42:36;;;;;;;;;;;;;;;;;;;;;
2021/04/30 06:45:03;;;;;;;24.70;13.88;;;8.50;86.80;;;;;;6117962;23;20014;-86
2021/04/30 06:47:31;;;;;;;16.38;10.55;;;8.60;87.70;;;;;;6155329;23;20023;-85
2021/04/30 06:49:57;;;;;;;14.77;10.68;;;8.60;87.60;;;;;;6154838;23;20065;-85
2021/04/30 06:52:44;;;;;;;18.13;10.65;;;8.60;87.40;;;;;;6153870;23;20045;-82
2021/04/30 06:55:17;;;;;;;14.88;10.25;;;8.60;87.50;;;;;;6155164;23;20018;-84
2021/04/30 06:57:48;;;;;;;15.05;10.73;;;8.70;87.30;;;;;;6154566;23;20029;-83
2021/04/30 07:00:20;;;;;;;14.18;9.57;;;8.60;87.30;;;;;;6154361;23;20080;-84
2021/04/30 07:02:50;;;;;;;21.80;11.85;;;8.60;87.00;;;;;;6155076;23;20512;-84
2021/04/30 07:05:16;;;;;;;19.58;11.32;;;8.70;87.60;;;;;;6156410;23;20024;-83
2021/04/30 07:07:56;;;;;;;15.77;10.88;;;8.70;87.60;;;;;;6155521;23;20017;-84
2021/04/30 07:10:23;;;;;;;19.73;11.98;;;8.70;87.80;;;;;;6156528;23;20014;-83
2021/04/30 07:12:50;;;;;;;24.90;14.02;;;8.70;87.80;;;;;;6155865;23;20028;-82
2021/04/30 07:15:17;;;;;;;16.45;10.73;;;8.80;88.60;;;;;;6156412;23;20021;-84
2021/04/30 07:17:45;;;;;;;27.73;14.07;;;8.80;88.60;;;;;;6155704;23;20060;-84
2021/04/30 07:20:12;;;;;;;26.70;14.02;;;8.70;88.80;;;;;;6155754;23;20071;-85
2021/04/30 07:22:38;;;;;;;23.33;13.65;;;8.80;89.10;;;;;;6155455;23;20343;-84
2021/04/30 07:25:04;;;;;;;16.17;10.25;;;8.80;89.70;;;;;;6156914;23;20036;-84
2021/04/30 07:27:30;;;;;;;21.55;11.77;;;8.80;89.20;;;;;;6155878;23;20399;-84
2021/04/30 07:29:55;;;;;;;17.63;11.75;;;8.80;89.00;;;;;;6155872;23;20024;-84
2021/04/30 07:32:22;;;;;;;16.73;10.05;;;8.80;89.00;;;;;;6157014;23;20072;-84
2021/04/30 07:34:47;;;;;;;15.82;9.80;;;8.80;88.90;;;;;;6154841;23;20025;-84
2021/04/30 07:37:13;;;;;;;17.88;11.35;;;8.80;88.60;;;;;;6156607;23;20378;-84
2021/04/30 07:39:43;;;;;;;15.80;10.25;;;8.90;88.90;;;;;;6155897;23;20457;-84
2021/04/30 07:42:09;;;;;;;16.73;10.63;;;8.90;88.90;;;;;;6155593;23;20048;-84
2021/04/30 07:44:35;;;;;;;23.13;11.75;;;8.90;88.80;;;;;;6155855;23;20453;-84
2021/04/30 07:47:01;;;;;;;27.80;13.25;;;8.90;88.80;;;;;;6156332;23;20018;-84
2021/04/30 07:49:29;;;;;;;19.10;11.13;;;8.90;89.40;;;;;;6155238;23;20020;-84
2021/04/30 07:52:00;;;;;;;18.40;10.52;;;8.90;89.10;;;;;;6156040;23;20025;-84
2021/04/30 07:54:26;;;;;;;20.60;11.80;;;8.90;89.20;;;;;;6154850;23;20010;-84
2021/04/30 07:56:51;;;;;;;15.98;10.50;;;9.00;89.40;;;;;;6155934;23;20021;-84
2021/04/30 07:59:17;;;;;;;15.00;9.45;;;8.90;89.10;;;;;;6156538;23;20434;-85
2021/04/30 08:01:43;;;;;;;15.35;10.30;;;9.00;89.00;;;;;;6154913;23;20025;-84
2021/04/30 08:04:09;;;;;;;20.13;10.80;;;9.00;88.90;;;;;;6155386;23;20021;-83
2021/04/30 08:06:37;;;;;;;24.67;11.85;;;9.00;89.00;;;;;;6152063;23;20017;-90
2021/04/30 08:09:04;;;;;;;25.13;12.70;;;9.00;89.30;;;;;;6156394;23;20088;-91
2021/04/30 08:11:30;;;;;;;23.92;11.73;;;9.00;89.70;;;;;;6156945;23;20373;-86
2021/04/30 08:13:55;;;;;;;16.77;9.73;;;9.10;89.60;;;;;;6155812;23;20072;-85
2021/04/30 08:16:21;;;;;;;19.65;11.15;;;9.10;89.20;;;;;;6155655;23;20029;-87
2021/04/30 08:18:47;;;;;;;19.63;10.73;;;9.10;89.90;;;;;;6156157;23;20045;-87
2021/04/30 08:21:14;;;;;;;14.63;9.98;;;9.10;89.10;;;;;;6155931;23;20043;-88
2021/04/30 08:23:42;;;;;;;18.17;10.27;;;9.10;89.00;;;;;;6155206;23;20068;-88
2021/04/30 08:26:08;;;;;;;14.80;9.65;;;9.20;89.10;;;;;;6156429;23;20013;-88
2021/04/30 08:28:34;;;;;;;14.50;9.52;;;9.10;88.90;;;;;;6156129;23;20376;-89
2021/04/30 08:30:59;;;;;;;16.05;9.93;;;9.20;88.80;;;;;;6155466;23;20084;-88
2021/04/30 08:33:26;;;;;;;20.90;11.98;;;9.20;88.70;;;;;;6155744;23;20017;-85
2021/04/30 08:35:53;;;;;;;21.02;11.75;;;9.20;88.90;;;;;;6156144;23;20072;-84
2021/04/30 08:38:19;;;;;;;15.80;10.18;;;9.20;89.30;;;;;;6129814;23;20017;-87
2021/04/30 08:40:57;;;;;;;15.70;10.43;;;9.30;89.20;;;;;;6155034;23;20519;-88
2021/04/30 08:43:22;;;;;;;14.43;10.25;;;9.20;89.00;;;;;;6156007;23;20450;-86
2021/04/30 08:45:54;;;;;;;15.75;9.98;;;9.30;88.90;;;;;;6153058;23;20363;-86
2021/04/30 08:48:21;;;;;;;17.83;9.60;;;9.30;88.90;;;;;;6155817;23;20017;-86
2021/04/30 08:50:54;;;;;;;20.65;10.68;;;9.30;88.80;;;;;;6153708;23;20028;-86
2021/04/30 08:53:21;;;;;;;17.92;10.35;;;9.30;88.80;;;;;;6155201;23;20026;-86
2021/04/30 08:55:50;;;;;;;22.75;12.50;;;9.40;88.90;;;;;;6154437;23;20017;-86
2021/04/30 08:58:22;;;;;;;14.88;9.77;;;9.40;89.20;;;;;;6154310;23;20450;-86
2021/04/30 09:00:50;;;;;;;13.68;9.02;;;9.40;89.00;;;;;;6155572;23;20022;-86
2021/04/30 09:03:16;;;;;;;14.35;9.32;;;9.50;88.80;;;;;;6130307;23;20060;-86
2021/04/30 09:05:50;;;;;;;14.48;8.93;;;9.40;88.50;;;;;;6154801;23;20330;-86
2021/04/30 09:08:17;;;;;;;14.55;8.88;;;9.50;88.40;;;;;;6156327;23;20068;-85
2021/04/30 09:10:48;;;;;;;17.98;9.57;;;9.50;88.40;;;;;;6155654;23;20018;-85
2021/04/30 09:13:20;;;;;;;13.85;8.90;;;9.50;88.50;;;;;;6154926;23;20044;-86
2021/04/30 09:16:06;;;;;;;14.80;9.07;;;9.50;88.20;;;;;;6154760;23;20520;-86
2021/04/30 09:18:33;;;;;;;13.00;8.68;;;9.60;88.10;;;;;;6154899;23;20044;-87
2021/04/30 09:21:10;;;;;;;14.75;8.80;;;9.60;88.00;;;;;;6154968;23;20014;-85
2021/04/30 09:23:48;;;;;;;15.23;8.20;;;9.60;87.90;;;;;;6155003;23;20022;-85
2021/04/30 09:26:28;;;;;;;20.00;10.43;;;9.60;87.80;;;;;;6154621;23;20020;-90
2021/04/30 09:29:10;;;;;;;16.20;9.57;;;9.70;87.90;;;;;;6156068;23;20350;-88
2021/04/30 09:31:41;;;;;;;16.15;9.27;;;9.70;88.10;;;;;;6155994;23;20040;-89
2021/04/30 09:34:30;;;;;;;14.85;9.13;;;9.70;87.80;;;;;;6155794;23;20511;-90
2021/04/30 09:37:13;;;;;;;16.27;9.15;;;9.80;87.70;;;;;;6155674;23;20509;-86
2021/04/30 09:39:57;;;;;;;14.70;9.07;;;9.70;87.70;;;;;;6155247;23;20017;-86
2021/04/30 09:42:25;;;;;;;21.63;11.38;;;9.80;87.60;;;;;;6155898;23;20071;-86
2021/04/30 09:44:56;;;;;;;13.90;9.07;;;9.80;87.90;;;;;;6154964;23;20402;-84
2021/04/30 09:47:31;;;;;;;15.82;9.65;;;9.90;87.70;;;;;;6153897;23;20089;-86
2021/04/30 09:49:59;;;;;;;24.80;10.63;;;9.90;87.60;;;;;;6154424;23;20017;-87
2021/04/30 09:52:34;;;;;;;12.40;9.10;;;9.90;87.70;;;;;;6154745;23;20458;-86
2021/04/30 09:55:05;;;;;;;15.77;9.30;;;9.90;87.60;;;;;;6154748;23;20014;-85
2021/04/30 09:57:34;;;;;;;13.50;9.30;;;10.00;87.50;;;;;;6155212;23;20021;-85
2021/04/30 10:00:20;;;;;;;12.43;8.70;;;10.00;87.40;;;;;;6155309;23;20017;-85
2021/04/30 10:02:49;;;;;;;13.18;8.70;;;10.10;87.30;;;;;;6154019;23;20093;-86
2021/04/30 10:05:18;;;;;;;12.63;8.38;;;10.10;87.30;;;;;;6155642;23;20074;-86
2021/04/30 10:07:53;;;;;;;13.55;8.65;;;10.10;87.30;;;;;;6155121;23;20022;-86
2021/04/30 10:10:22;;;;;;;15.73;9.93;;;10.20;87.10;;;;;;6150902;23;20434;-86
2021/04/30 10:12:52;;;;;;;19.05;10.18;;;10.20;87.40;;;;;;6154325;23;20018;-88
2021/04/30 10:15:19;;;;;;;14.40;8.85;;;10.20;87.10;;;;;;6154873;23;20040;-88
2021/04/30 10:17:46;;;;;;;14.85;9.65;;;10.20;86.90;;;;;;6154484;23;20029;-87
2021/04/30 10:20:23;;;;;;;17.77;10.20;;;10.30;86.90;;;;;;6155443;23;20378;-87
2021/04/30 10:22:50;;;;;;;15.18;9.60;;;10.30;86.10;;;;;;6153564;23;20021;-87
2021/04/30 10:25:18;;;;;;;14.30;8.82;;;10.30;86.30;;;;;;6154391;23;20018;-86
2021/04/30 10:27:49;;;;;;;16.98;10.30;;;10.40;86.40;;;;;;6154006;23;20018;-81
2021/04/30 10:30:33;;;;;;;12.32;8.88;;;10.40;86.30;;;;;;6154145;23;20014;-82
2021/04/30 10:33:20;;;;;;;14.52;8.93;;;10.40;86.20;;;;;;6155343;23;20020;-82
2021/04/30 10:36:08;;;;;;;16.30;9.30;;;10.50;85.70;;;;;;6152797;23;20017;-86
2021/04/30 10:38:42;;;;;;;14.35;9.18;;;10.50;85.60;;;;;;6154566;23;20021;-92
2021/04/30 10:41:10;;;;;;;13.18;8.45;;;10.50;85.50;;;;;;6154395;23;20021;-89
2021/04/30 10:43:39;;;;;;;11.93;8.68;;;10.60;85.40;;;;;;6153419;23;20029;-88
2021/04/30 10:46:21;;;;;;;13.27;8.93;;;10.60;85.30;;;;;;6155631;23;20024;-89
2021/04/30 10:49:08;;;;;;;12.25;8.38;;;10.60;85.20;;;;;;6155288;23;20244;-90
2021/04/30 10:51:36;;;;;;;13.27;8.90;;;10.60;85.30;;;;;;6154349;23;20048;-89
2021/04/30 10:54:26;;;;;;;13.27;9.13;;;10.60;85.40;;;;;;6154577;23;20052;-90
2021/04/30 10:57:00;;;;;;;13.43;8.13;;;10.60;85.30;;;;;;6134014;23;20014;-91
2021/04/30 10:59:40;;;;;;;;;;;10.70;85.50;;;;;;6152859;23;20048;-88
2021/04/30 11:02:28;;;;;;;14.10;9.18;;;10.60;84.70;;;;;;6151824;23;19971;-89
2021/04/30 11:05:03;;;;;;;13.80;8.90;;;10.60;85.20;;;;;;6154210;23;20041;-88
2021/04/30 11:07:44;;;;;;;12.68;8.50;;;10.70;85.20;;;;;;6155320;23;20017;-87
2021/04/30 11:10:21;;;;;;;10.60;8.45;;;10.70;85.30;;;;;;6155067;23;20018;-87
2021/04/30 11:13:14;;;;;;;12.38;8.50;;;10.70;85.30;;;;;;6153603;23;20029;-87
2021/04/30 11:15:45;;;;;;;12.55;8.82;;;10.80;85.30;;;;;;6155428;23;20028;-87
2021/04/30 11:18:19;;;;;;;14.68;9.40;;;10.80;85.20;;;;;;6156850;23;20013;-86
2021/04/30 11:20:58;;;;;;;12.30;8.95;;;10.80;84.40;;;;;;6154360;23;20103;-87
2021/04/30 11:23:26;;;;;;;13.13;9.32;;;10.90;84.20;;;;;;6154585;23;20048;-86
2021/04/30 11:25:57;;;;;;;17.65;11.10;;;10.90;84.20;;;;;;6153279;23;20029;-86
2021/04/30 11:28:33;;;;;;;12.98;9.32;;;11.00;84.30;;;;;;6154527;23;20387;-85
2021/04/30 11:34:21;;;;;;;11.32;9.20;;;11.10;84.50;;;;;;6154076;23;20145;-86
2021/04/30 11:36:51;;;;;;;11.43;8.52;;;11.10;84.10;;;;;;6129262;23;20025;-86
2021/04/30 11:39:22;;;;;;;12.07;8.93;;;11.20;84.20;;;;;;6155495;23;20057;-86
2021/04/30 11:41:49;;;;;;;13.18;10.27;;;11.30;84.10;;;;;;6154626;23;20080;-86
2021/04/30 11:44:24;;;;;;;16.85;10.40;;;11.40;83.10;;;;;;6154995;23;20080;-86
2021/04/30 11:47:05;;;;;;;14.27;10.27;;;11.50;81.60;;;;;;6152929;23;20018;-87
2021/04/30 11:52:35;;;;;;;12.75;8.68;;;11.60;82.00;;;;;;6157070;23;20381;-88
2021/04/30 11:55:21;;;;;;;14.93;10.00;;;11.70;82.50;;;;;;6149464;23;20016;-87
2021/04/30 11:57:52;;;;;;;14.82;10.02;;;11.80;81.40;;;;;;6156369;23;20220;-88
2021/04/30 12:00:21;;;;;;;16.05;10.15;;;11.80;80.60;;;;;;6156351;23;20021;-88
2021/04/30 12:03:21;;;;;;;15.13;9.77;;;11.90;79.50;;;;;;6154458;23;20017;-88
2021/04/30 12:06:17;;;;;;;16.02;9.45;;;11.90;79.00;;;;;;6155280;23;20017;-85
2021/04/30 12:08:59;;;;;;;12.88;9.85;;;12.00;79.20;;;;;;6156427;23;20386;-85
2021/04/30 12:11:35;;;;;;;13.77;9.63;;;12.00;79.10;;;;;;6155660;23;20036;-85
2021/04/30 12:14:06;;;;;;;16.02;10.20;;;12.10;78.80;;;;;;6155161;23;20013;-84
2021/04/30 12:16:32;;;;;;;13.13;9.40;;;12.20;78.80;;;;;;6154022;23;20029;-84
2021/04/30 12:19:09;;;;;;;14.77;10.10;;;12.20;78.40;;;;;;6156153;23;20013;-85
2021/04/30 12:21:47;;;;;;;16.85;10.43;;;12.30;77.80;;;;;;6151211;23;20300;-84
2021/04/30 12:24:21;;;;;;;14.57;9.45;;;12.40;77.00;;;;;;6155211;23;20014;-84
2021/04/30 12:26:49;;;;;;;13.18;9.55;;;12.40;78.20;;;;;;6155766;23;20028;-84
2021/04/30 12:29:18;;;;;;;13.80;9.93;;;12.40;79.00;;;;;;6154915;23;20109;-84
2021/04/30 12:31:47;;;;;;;15.80;9.77;;;12.40;78.90;;;;;;6155231;23;20068;-84
2021/04/30 12:34:13;;;;;;;16.25;9.80;;;12.50;77.60;;;;;;6156356;23;20092;-84
2021/04/30 12:36:41;;;;;;;13.52;10.20;;;12.50;77.00;;;;;;6154789;23;20041;-84
2021/04/30 12:39:26;;;;;;;15.82;10.05;;;12.60;78.20;;;;;;6156333;23;20022;-84
2021/04/30 12:41:52;;;;;;;13.27;10.10;;;12.60;77.40;;;;;;6154968;23;20458;-84
2021/04/30 12:44:20;;;;;;;12.80;9.50;;;12.70;77.70;;;;;;6155472;23;20018;-84
2021/04/30 12:46:46;;;;;;;13.13;10.15;;;12.70;78.30;;;;;;6155631;23;20018;-85
2021/04/30 12:49:16;;;;;;;11.32;9.60;;;12.70;79.20;;;;;;6156747;23;20056;-84
2021/04/30 12:51:55;;;;;;;11.88;9.75;;;12.80;79.70;;;;;;6154716;23;20096;-84
2021/04/30 12:54:28;;;;;;;12.10;9.40;;;12.80;80.10;;;;;;6155237;23;20056;-85